Time,TemperatureF,DewpointF,PressureIn,WindDirection,WindDirectionDegrees,WindSpeedMPH,WindSpeedGustMPH,Humidity,HourlyPrecipIn,Conditions,Clouds,dailyrainin,SoftwareType,DateUTC
2013-01-12 00:00:00,60.6,58.0,30.14,SE,135,0.0,0.0,91,0.02,,,0.00,WUHU21623XXSP,2013-01-12 05:00:00,
2013-01-12 00:10:00,60.6,58.0,30.14,SE,135,0.0,0.0,91,0.02,,,0.00,WUHU21623XXSP,2013-01-12 05:10:00,
2013-01-12 00:15:00,60.6,58.0,30.14,SE,135,0.0,0.0,91,0.02,,,0.00,WUHU21623XXSP,2013-01-12 05:15:00,
2013-01-12 00:20:00,60.6,58.0,30.14,SE,135,0.0,0.0,91,0.00,,,0.00,WUHU21623XXSP,2013-01-12 05:20:00,
2013-01-12 00:25:00,60.6,58.0,30.14,SE,135,0.0,0.0,91,0.02,,,0.02,WUHU21623XXSP,2013-01-12 05:25:00,
2013-01-12 00:30:00,60.6,58.0,30.14,SE,135,0.0,0.0,91,0.02,,,0.02,WUHU21623XXSP,2013-01-12 05:30:00,
2013-01-12 00:35:00,60.6,58.0,30.14,SE,135,0.0,0.0,91,0.02,,,0.02,WUHU21623XXSP,2013-01-12 05:35:00,
2013-01-12 00:40:00,60.6,58.0,30.14,SE,135,0.0,0.0,91,0.02,,,0.02,WUHU21623XXSP,2013-01-12 05:40:00,
2013-01-12 00:45:00,60.6,58.0,30.14,SE,135,0.0,0.0,91,0.02,,,0.02,WUHU21623XXSP,2013-01-12 05:45:00,
2013-01-12 00:50:00,60.6,58.0,30.14,SE,135,0.0,0.0,91,0.02,,,0.02,WUHU21623XXSP,2013-01-12 05:50:00,
2013-01-12 00:55:00,60.6,58.0,30.14,SE,135,0.0,0.0,91,0.02,,,0.02,WUHU21623XXSP,2013-01-12 05:55:00,
2013-01-12 01:00:00,60.6,58.0,30.14,SE,135,0.0,0.0,91,0.02,,,0.02,WUHU21623XXSP,2013-01-12 06:00:00,
2013-01-12 01:05:00,60.6,58.0,30.14,SE,135,0.0,0.0,91,0.02,,,0.02,WUHU21623XXSP,2013-01-12 06:05:00,
2013-01-12 01:10:00,60.6,58.0,30.14,SE,135,0.0,0.0,91,0.02,,,0.02,WUHU21623XXSP,2013-01-12 06:10:00,
2013-01-12 01:15:00,60.6,58.0,30.14,SE,135,0.0,0.0,91,0.02,,,0.02,WUHU21623XXSP,2013-01-12 06:15:00,
2013-01-12 01:20:00,60.8,58.2,30.14,SE,135,0.0,0.0,91,0.00,,,0.02,WUHU21623XXSP,2013-01-12 06:20:00,
2013-01-12 01:25:00,60.8,58.2,30.14,SE,135,0.0,0.0,91,0.00,,,0.02,WUHU21623XXSP,2013-01-12 06:25:00,
2013-01-12 01:30:00,60.6,58.0,30.14,SE,135,0.0,0.0,91,0.00,,,0.02,WUHU21623XXSP,2013-01-12 06:30:00,
2013-01-12 01:35:00,60.6,58.0,30.13,SE,135,0.0,0.0,91,0.00,,,0.02,WUHU21623XXSP,2013-01-12 06:35:00,
2013-01-12 01:40:00,61.0,58.2,30.13,SE,135,0.0,0.0,91,0.00,,,0.02,WUHU21623XXSP,2013-01-12 06:40:00,
2013-01-12 01:45:00,61.0,58.4,30.14,SE,135,0.0,0.0,91,0.00,,,0.02,WUHU21623XXSP,2013-01-12 06:45:00,
2013-01-12 01:50:00,60.6,58.0,30.14,SE,135,0.0,0.0,91,0.00,,,0.02,WUHU21623XXSP,2013-01-12 06:50:00,
2013-01-12 01:55:00,60.6,58.0,30.14,SE,135,0.0,0.0,91,0.00,,,0.02,WUHU21623XXSP,2013-01-12 06:55:00,
2013-01-12 02:00:00,60.6,58.0,30.14,SE,135,0.0,0.0,91,0.00,,,0.02,WUHU21623XXSP,2013-01-12 07:00:00,
2013-01-12 02:05:00,60.6,58.0,30.14,SE,135,0.0,0.0,91,0.00,,,0.02,WUHU21623XXSP,2013-01-12 07:05:00,
2013-01-12 02:10:00,60.6,58.0,30.14,SE,135,0.0,0.0,91,0.00,,,0.02,WUHU21623XXSP,2013-01-12 07:10:00,
2013-01-12 02:15:00,60.6,58.0,30.15,SE,135,0.0,0.0,91,0.00,,,0.02,WUHU21623XXSP,2013-01-12 07:15:00,
2013-01-12 02:20:00,60.4,57.8,30.15,SE,135,0.0,0.0,91,0.00,,,0.02,WUHU21623XXSP,2013-01-12 07:20:00,
2013-01-12 02:25:00,60.4,57.8,30.15,SE,135,0.0,0.0,91,0.00,,,0.02,WUHU21623XXSP,2013-01-12 07:25:00,
2013-01-12 02:30:00,60.4,57.8,30.15,SE,135,0.0,0.0,91,0.00,,,0.02,WUHU21623XXSP,2013-01-12 07:30:00,
2013-01-12 02:35:00,60.4,57.8,30.15,SE,135,0.0,0.0,91,0.00,,,0.02,WUHU21623XXSP,2013-01-12 07:35:00,
2013-01-12 02:40:00,60.4,57.8,30.15,SE,135,0.0,0.0,91,0.00,,,0.02,WUHU21623XXSP,2013-01-12 07:40:00,
2013-01-12 02:45:00,60.4,57.8,30.15,SE,135,0.0,0.0,91,0.00,,,0.02,WUHU21623XXSP,2013-01-12 07:45:00,
2013-01-12 02:50:00,60.4,57.8,30.15,SE,135,0.0,0.0,91,0.00,,,0.02,WUHU21623XXSP,2013-01-12 07:50:00,
2013-01-12 02:55:00,60.4,57.8,30.15,SE,135,0.0,0.0,91,0.00,,,0.02,WUHU21623XXSP,2013-01-12 07:55:00,
2013-01-12 03:00:00,60.4,57.8,30.15,SE,135,0.0,0.0,91,0.00,,,0.02,WUHU21623XXSP,2013-01-12 08:00:00,
2013-01-12 03:05:00,60.3,57.7,30.15,SE,135,0.0,0.0,91,0.00,,,0.02,WUHU21623XXSP,2013-01-12 08:05:00,
2013-01-12 03:10:00,60.4,57.8,30.15,SE,135,0.0,0.0,91,0.00,,,0.02,WUHU21623XXSP,2013-01-12 08:10:00,
2013-01-12 03:15:00,60.4,57.8,30.15,SE,135,0.0,0.0,91,0.00,,,0.02,WUHU21623XXSP,2013-01-12 08:15:00,
2013-01-12 03:20:00,60.4,57.8,30.15,SE,135,0.0,0.0,91,0.00,,,0.02,WUHU21623XXSP,2013-01-12 08:20:00,
2013-01-12 03:25:00,60.4,57.8,30.15,SE,135,0.0,0.0,91,0.00,,,0.02,WUHU21623XXSP,2013-01-12 08:25:00,
2013-01-12 03:30:00,60.4,57.8,30.15,SE,135,0.0,0.0,91,0.00,,,0.02,WUHU21623XXSP,2013-01-12 08:30:00,
2013-01-12 03:35:00,60.3,57.7,30.15,SE,135,0.0,0.0,91,0.00,,,0.02,WUHU21623XXSP,2013-01-12 08:35:00,
2013-01-12 03:40:00,60.1,57.7,30.15,SE,135,0.0,0.0,91,0.00,,,0.02,WUHU21623XXSP,2013-01-12 08:40:00,
2013-01-12 03:45:00,60.1,57.5,30.14,SE,135,0.0,0.0,91,0.00,,,0.02,WUHU21623XXSP,2013-01-12 08:45:00,
2013-01-12 03:50:00,60.1,57.5,30.15,SE,135,0.0,0.0,91,0.00,,,0.02,WUHU21623XXSP,2013-01-12 08:50:00,
2013-01-12 03:55:00,60.1,57.5,30.14,SE,135,0.0,0.0,91,0.00,,,0.02,WUHU21623XXSP,2013-01-12 08:55:00,
2013-01-12 04:00:00,60.1,57.5,30.14,SE,135,0.0,0.0,91,0.00,,,0.02,WUHU21623XXSP,2013-01-12 09:00:00,
2013-01-12 04:05:00,60.1,57.5,30.15,SE,135,0.0,0.0,91,0.00,,,0.02,WUHU21623XXSP,2013-01-12 09:05:00,
2013-01-12 04:10:00,60.4,58.1,30.14,SE,135,0.0,0.0,92,0.00,,,0.02,WUHU21623XXSP,2013-01-12 09:10:00,
2013-01-12 04:15:00,60.4,57.8,30.14,SE,135,0.0,0.0,92,0.00,,,0.02,WUHU21623XXSP,2013-01-12 09:15:00,
2013-01-12 04:20:00,60.4,57.8,30.14,SE,135,0.0,0.0,91,0.00,,,0.02,WUHU21623XXSP,2013-01-12 09:20:00,
2013-01-12 04:25:00,60.4,57.8,30.14,SE,135,0.0,0.0,91,0.00,,,0.02,WUHU21623XXSP,2013-01-12 09:25:00,
2013-01-12 04:30:00,60.4,58.1,30.14,SE,135,0.0,0.0,92,0.00,,,0.02,WUHU21623XXSP,2013-01-12 09:30:00,
2013-01-12 04:35:00,60.4,58.1,30.14,SE,135,0.0,0.0,92,0.00,,,0.02,WUHU21623XXSP,2013-01-12 09:35:00,
2013-01-12 04:40:00,60.4,58.1,30.14,SE,135,0.0,0.0,92,0.00,,,0.02,WUHU21623XXSP,2013-01-12 09:40:00,
2013-01-12 04:45:00,60.4,58.1,30.13,SE,135,0.0,0.0,92,0.00,,,0.02,WUHU21623XXSP,2013-01-12 09:45:00,
2013-01-12 04:50:00,60.3,57.7,30.13,SE,135,0.0,0.0,91,0.00,,,0.02,WUHU21623XXSP,2013-01-12 09:50:00,
2013-01-12 04:55:00,60.4,57.7,30.13,SE,135,0.0,0.0,92,0.00,,,0.02,WUHU21623XXSP,2013-01-12 09:55:00,
2013-01-12 05:00:00,60.1,57.5,30.13,SE,135,0.0,0.0,91,0.00,,,0.02,WUHU21623XXSP,2013-01-12 10:00:00,
2013-01-12 05:05:00,60.1,57.5,30.13,SE,135,0.0,0.0,91,0.00,,,0.02,WUHU21623XXSP,2013-01-12 10:05:00,
2013-01-12 05:10:00,60.1,57.5,30.12,SE,135,0.0,0.0,91,0.00,,,0.02,WUHU21623XXSP,2013-01-12 10:10:00,
2013-01-12 05:15:00,60.1,57.5,30.13,SE,135,0.0,0.0,91,0.00,,,0.02,WUHU21623XXSP,2013-01-12 10:15:00,
2013-01-12 05:20:00,60.1,57.5,30.12,SE,135,0.0,0.0,91,0.00,,,0.02,WUHU21623XXSP,2013-01-12 10:20:00,
2013-01-12 05:25:00,60.1,57.5,30.12,SE,135,0.0,0.0,91,0.02,,,0.02,WUHU21623XXSP,2013-01-12 10:25:00,
2013-01-12 05:30:00,60.1,57.5,30.12,SE,135,0.0,0.0,91,0.02,,,0.04,WUHU21623XXSP,2013-01-12 10:30:00,
2013-01-12 05:35:00,59.9,57.6,30.12,SE,135,0.0,0.0,92,0.02,,,0.04,WUHU21623XXSP,2013-01-12 10:35:00,
2013-01-12 05:40:00,59.7,57.4,30.12,SE,135,0.0,0.0,92,0.02,,,0.04,WUHU21623XXSP,2013-01-12 10:40:00,
2013-01-12 05:45:00,59.7,57.4,30.12,SE,135,0.0,0.0,92,0.02,,,0.04,WUHU21623XXSP,2013-01-12 10:45:00,
2013-01-12 05:50:00,59.7,57.4,30.12,SE,135,0.0,0.0,92,0.02,,,0.04,WUHU21623XXSP,2013-01-12 10:50:00,
2013-01-12 05:55:00,59.7,57.4,30.12,SE,135,0.0,0.0,92,0.02,,,0.04,WUHU21623XXSP,2013-01-12 10:55:00,
2013-01-12 06:00:00,59.7,57.4,30.12,SE,135,0.0,0.0,92,0.02,,,0.04,WUHU21623XXSP,2013-01-12 11:00:00,
2013-01-12 06:05:00,59.7,57.4,30.12,SE,135,0.0,0.0,92,0.02,,,0.04,WUHU21623XXSP,2013-01-12 11:05:00,
2013-01-12 06:10:00,59.7,57.4,30.12,SE,135,0.0,0.0,92,0.02,,,0.04,WUHU21623XXSP,2013-01-12 11:10:00,
2013-01-12 06:15:00,59.9,57.6,30.12,SE,135,0.0,0.0,92,0.02,,,0.04,WUHU21623XXSP,2013-01-12 11:15:00,
2013-01-12 06:20:00,59.9,57.6,30.12,SE,135,0.0,0.0,92,0.00,,,0.04,WUHU21623XXSP,2013-01-12 11:20:00,
2013-01-12 06:25:00,59.9,57.6,30.12,SE,135,0.0,0.0,92,0.00,,,0.04,WUHU21623XXSP,2013-01-12 11:25:00,
2013-01-12 06:30:00,59.9,57.6,30.13,SE,135,0.0,0.0,92,0.00,,,0.04,WUHU21623XXSP,2013-01-12 11:30:00,
2013-01-12 06:35:00,59.9,57.6,30.13,SE,135,0.0,0.0,92,0.00,,,0.04,WUHU21623XXSP,2013-01-12 11:35:00,
2013-01-12 06:41:00,59.9,57.6,30.13,SE,135,0.0,0.0,92,0.00,,,0.04,WUHU21623XXSP,2013-01-12 11:41:00,
2013-01-12 06:46:00,59.9,57.6,30.14,SE,135,0.0,0.0,92,0.00,,,0.04,WUHU21623XXSP,2013-01-12 11:46:00,
2013-01-12 06:51:00,60.1,57.8,30.14,SE,135,0.0,0.0,92,0.00,,,0.04,WUHU21623XXSP,2013-01-12 11:51:00,
2013-01-12 06:56:00,60.1,57.8,30.14,SE,135,0.0,0.0,92,0.00,,,0.04,WUHU21623XXSP,2013-01-12 11:56:00,
2013-01-12 07:01:00,60.1,57.8,30.15,SE,135,0.0,0.0,92,0.00,,,0.04,WUHU21623XXSP,2013-01-12 12:01:00,
2013-01-12 07:06:00,60.4,58.1,30.15,SE,135,0.0,0.0,92,0.00,,,0.04,WUHU21623XXSP,2013-01-12 12:06:00,
2013-01-12 07:11:00,60.4,58.1,30.15,SE,135,0.0,0.0,92,0.00,,,0.04,WUHU21623XXSP,2013-01-12 12:11:00,
2013-01-12 07:16:00,60.4,58.1,30.15,SE,135,0.0,0.0,92,0.00,,,0.04,WUHU21623XXSP,2013-01-12 12:16:00,
2013-01-12 07:21:00,60.4,58.1,30.15,SE,135,0.0,0.0,92,0.00,,,0.04,WUHU21623XXSP,2013-01-12 12:21:00,
2013-01-12 07:26:00,60.6,58.3,30.15,SE,135,0.0,0.0,92,0.00,,,0.04,WUHU21623XXSP,2013-01-12 12:26:00,
2013-01-12 07:31:00,60.6,58.3,30.15,SE,135,0.0,0.0,92,0.00,,,0.04,WUHU21623XXSP,2013-01-12 12:31:00,
2013-01-12 07:36:00,60.6,58.3,30.15,SE,135,0.0,0.0,92,0.00,,,0.04,WUHU21623XXSP,2013-01-12 12:36:00,
2013-01-12 07:41:00,60.6,58.3,30.15,SE,135,0.0,0.0,92,0.00,,,0.04,WUHU21623XXSP,2013-01-12 12:41:00,
2013-01-12 07:46:00,60.6,58.3,30.15,SE,135,0.0,0.0,92,0.00,,,0.04,WUHU21623XXSP,2013-01-12 12:46:00,
2013-01-12 07:51:00,60.6,58.3,30.14,SE,135,0.0,0.0,92,0.00,,,0.04,WUHU21623XXSP,2013-01-12 12:51:00,
2013-01-12 07:56:00,60.6,58.3,30.15,SE,135,0.0,0.0,92,0.00,,,0.04,WUHU21623XXSP,2013-01-12 12:56:00,
2013-01-12 08:01:00,60.4,58.1,30.15,SE,135,0.0,0.0,92,0.00,,,0.04,WUHU21623XXSP,2013-01-12 13:01:00,
2013-01-12 08:06:00,60.4,58.1,30.15,SE,135,0.0,0.0,92,0.00,,,0.04,WUHU21623XXSP,2013-01-12 13:06:00,
2013-01-12 08:11:00,60.4,58.1,30.15,SE,135,0.0,0.0,92,0.00,,,0.04,WUHU21623XXSP,2013-01-12 13:11:00,
2013-01-12 08:16:00,60.1,58.0,30.16,SE,135,0.0,0.0,92,0.00,,,0.04,WUHU21623XXSP,2013-01-12 13:16:00,
2013-01-12 08:21:00,60.1,57.8,30.16,SE,135,0.0,0.0,92,0.00,,,0.04,WUHU21623XXSP,2013-01-12 13:21:00,
2013-01-12 08:26:00,60.1,58.0,30.16,SE,135,0.0,0.0,92,0.00,,,0.04,WUHU21623XXSP,2013-01-12 13:26:00,
2013-01-12 08:31:00,60.1,57.8,30.16,SE,135,0.0,0.0,92,0.00,,,0.04,WUHU21623XXSP,2013-01-12 13:31:00,
2013-01-12 08:36:00,60.1,57.8,30.16,SE,135,0.0,0.0,92,0.00,,,0.04,WUHU21623XXSP,2013-01-12 13:36:00,
2013-01-12 08:41:00,60.3,57.8,30.16,SE,135,0.0,0.0,92,0.00,,,0.04,WUHU21623XXSP,2013-01-12 13:41:00,
2013-01-12 08:46:00,60.4,58.1,30.16,SE,135,0.0,0.0,92,0.00,,,0.04,WUHU21623XXSP,2013-01-12 13:46:00,
2013-01-12 08:51:00,60.4,58.1,30.17,SE,135,0.0,0.0,92,0.00,,,0.04,WUHU21623XXSP,2013-01-12 13:51:00,
2013-01-12 08:56:00,60.4,58.1,30.17,SE,135,0.0,0.0,92,0.00,,,0.04,WUHU21623XXSP,2013-01-12 13:56:00,
2013-01-12 09:01:00,60.6,58.3,30.17,SE,135,0.0,0.0,92,0.00,,,0.04,WUHU21623XXSP,2013-01-12 14:01:00,
2013-01-12 09:06:00,60.6,58.3,30.17,SE,135,0.0,0.0,92,0.00,,,0.04,WUHU21623XXSP,2013-01-12 14:06:00,
2013-01-12 09:11:00,60.6,58.3,30.17,SE,135,0.0,0.0,92,0.00,,,0.04,WUHU21623XXSP,2013-01-12 14:11:00,
2013-01-12 09:16:00,60.6,58.3,30.17,SE,135,0.0,0.0,92,0.00,,,0.04,WUHU21623XXSP,2013-01-12 14:16:00,
2013-01-12 09:21:00,60.8,58.5,30.17,SE,135,0.0,0.0,92,0.00,,,0.04,WUHU21623XXSP,2013-01-12 14:21:00,
2013-01-12 09:26:00,60.8,58.5,30.17,SE,135,0.0,0.0,92,0.00,,,0.04,WUHU21623XXSP,2013-01-12 14:26:00,
2013-01-12 09:31:00,60.6,58.3,30.17,SE,135,0.0,0.0,92,0.00,,,0.04,WUHU21623XXSP,2013-01-12 14:31:00,
2013-01-12 09:36:00,60.6,58.3,30.18,SE,135,0.0,0.0,92,0.00,,,0.04,WUHU21623XXSP,2013-01-12 14:36:00,
2013-01-12 09:41:00,60.6,58.3,30.17,ESE,112,0.0,0.0,92,0.00,,,0.04,WUHU21623XXSP,2013-01-12 14:41:00,
2013-01-12 09:46:00,60.6,58.3,30.17,ENE,67,0.0,0.0,92,0.00,,,0.04,WUHU21623XXSP,2013-01-12 14:46:00,
2013-01-12 09:51:00,60.6,58.3,30.16,ENE,67,0.0,0.0,92,0.00,,,0.04,WUHU21623XXSP,2013-01-12 14:51:00,
2013-01-12 09:56:00,60.6,58.3,30.16,NE,45,0.0,0.0,92,0.00,,,0.04,WUHU21623XXSP,2013-01-12 14:56:00,
2013-01-12 10:01:00,60.6,58.3,30.17,NE,45,0.0,0.0,92,0.00,,,0.04,WUHU21623XXSP,2013-01-12 15:01:00,
2013-01-12 10:06:00,60.6,58.5,30.17,NE,45,0.0,0.0,92,0.00,,,0.04,WUHU21623XXSP,2013-01-12 15:06:00,
2013-01-12 10:11:00,60.8,58.5,30.17,ENE,67,0.0,0.0,92,0.00,,,0.04,WUHU21623XXSP,2013-01-12 15:11:00,
2013-01-12 10:16:00,61.0,58.7,30.17,ENE,67,0.0,0.0,92,0.00,,,0.04,WUHU21623XXSP,2013-01-12 15:16:00,
2013-01-12 10:21:00,61.2,58.9,30.17,NE,45,0.0,0.0,92,0.00,,,0.04,WUHU21623XXSP,2013-01-12 15:21:00,
2013-01-12 10:26:00,61.3,59.0,30.17,ENE,67,0.0,0.0,92,0.00,,,0.04,WUHU21623XXSP,2013-01-12 15:26:00,
2013-01-12 10:31:00,61.7,59.2,30.17,NE,45,0.0,0.0,92,0.00,,,0.04,WUHU21623XXSP,2013-01-12 15:31:00,
2013-01-12 10:36:00,62.1,59.8,30.17,NE,45,0.0,0.0,92,0.00,,,0.04,WUHU21623XXSP,2013-01-12 15:36:00,
2013-01-12 10:41:00,62.2,59.9,30.17,NE,45,0.0,0.0,92,0.00,,,0.04,WUHU21623XXSP,2013-01-12 15:41:00,
2013-01-12 10:46:00,62.4,60.1,30.17,ENE,67,0.0,0.0,92,0.00,,,0.04,WUHU21623XXSP,2013-01-12 15:46:00,
2013-01-12 10:51:00,62.6,60.3,30.17,ENE,67,0.0,0.0,92,0.00,,,0.04,WUHU21623XXSP,2013-01-12 15:51:00,
2013-01-12 10:56:00,62.8,60.5,30.17,NE,45,0.0,0.0,92,0.00,,,0.04,WUHU21623XXSP,2013-01-12 15:56:00,
2013-01-12 11:01:00,63.0,60.7,30.17,NE,45,0.0,0.0,92,0.00,,,0.04,WUHU21623XXSP,2013-01-12 16:01:00,
2013-01-12 11:06:00,63.1,60.8,30.17,NE,45,0.0,0.0,92,0.00,,,0.04,WUHU21623XXSP,2013-01-12 16:06:00,
2013-01-12 11:11:00,63.1,60.8,30.16,NE,45,0.0,0.0,92,0.00,,,0.04,WUHU21623XXSP,2013-01-12 16:11:00,
2013-01-12 11:16:00,63.1,60.8,30.16,NE,45,0.0,0.0,92,0.00,,,0.04,WUHU21623XXSP,2013-01-12 16:16:00,
2013-01-12 11:21:00,63.1,60.8,30.16,NE,45,0.0,0.0,92,0.00,,,0.04,WUHU21623XXSP,2013-01-12 16:21:00,
2013-01-12 11:26:00,63.1,60.8,30.16,NE,45,0.0,0.0,92,0.00,,,0.04,WUHU21623XXSP,2013-01-12 16:26:00,
2013-01-12 11:31:00,63.1,60.8,30.15,NE,45,0.0,0.0,92,0.00,,,0.04,WUHU21623XXSP,2013-01-12 16:31:00,
2013-01-12 11:36:00,63.3,61.0,30.15,NE,45,0.0,0.0,92,0.00,,,0.04,WUHU21623XXSP,2013-01-12 16:36:00,
2013-01-12 11:41:00,63.5,61.2,30.15,NE,45,0.0,0.0,92,0.00,,,0.04,WUHU21623XXSP,2013-01-12 16:41:00,
2013-01-12 11:46:00,64.0,61.7,30.15,NE,45,0.0,0.0,92,0.00,,,0.04,WUHU21623XXSP,2013-01-12 16:46:00,
2013-01-12 11:51:00,64.0,61.7,30.15,NE,45,0.0,0.0,92,0.00,,,0.04,WUHU21623XXSP,2013-01-12 16:51:00,
2013-01-12 11:56:00,64.2,61.9,30.14,ENE,67,0.0,0.0,92,0.00,,,0.04,WUHU21623XXSP,2013-01-12 16:56:00,
2013-01-12 12:01:00,64.6,62.1,30.14,NE,45,0.0,0.0,92,0.00,,,0.04,WUHU21623XXSP,2013-01-12 17:01:00,
2013-01-12 12:06:00,64.8,62.4,30.13,NE,45,0.0,0.0,92,0.00,,,0.04,WUHU21623XXSP,2013-01-12 17:06:00,
2013-01-12 12:11:00,65.1,62.7,30.13,NE,45,0.0,0.0,92,0.00,,,0.04,WUHU21623XXSP,2013-01-12 17:11:00,
2013-01-12 12:16:00,65.1,62.5,30.13,NE,45,0.0,0.0,91,0.00,,,0.04,WUHU21623XXSP,2013-01-12 17:16:00,
2013-01-12 12:21:00,65.5,62.8,30.13,NE,45,0.0,0.0,91,0.00,,,0.04,WUHU21623XXSP,2013-01-12 17:21:00,
2013-01-12 12:26:00,66.0,63.3,30.12,NE,45,0.0,0.0,91,0.00,,,0.04,WUHU21623XXSP,2013-01-12 17:26:00,
2013-01-12 12:31:00,66.4,63.6,30.12,ENE,67,0.0,0.0,91,0.00,,,0.04,WUHU21623XXSP,2013-01-12 17:31:00,
2013-01-12 12:36:00,66.7,63.8,30.12,ENE,67,0.0,0.0,91,0.00,,,0.04,WUHU21623XXSP,2013-01-12 17:36:00,
2013-01-12 12:41:00,66.9,63.9,30.12,ENE,67,0.0,0.0,90,0.00,,,0.04,WUHU21623XXSP,2013-01-12 17:41:00,
2013-01-12 12:46:00,67.3,63.9,30.12,NE,45,0.0,0.0,89,0.00,,,0.04,WUHU21623XXSP,2013-01-12 17:46:00,
2013-01-12 13:00:00,67.5,63.8,30.12,NE,45,0.0,0.0,88,0.00,,,0.04,WUHU21623XXSP,2013-01-12 18:00:00,
2013-01-12 13:10:00,67.8,64.1,30.11,ENE,67,0.0,0.0,88,0.00,,,0.04,WUHU21623XXSP,2013-01-12 18:10:00,
2013-01-12 13:15:00,68.5,64.1,30.11,NE,45,0.0,0.0,86,0.00,,,0.04,WUHU21623XXSP,2013-01-12 18:15:00,
2013-01-12 13:20:00,68.9,64.5,30.11,NE,45,0.0,0.0,86,0.00,,,0.04,WUHU21623XXSP,2013-01-12 18:20:00,
2013-01-12 13:25:00,69.4,64.7,30.11,ENE,67,0.0,0.0,85,0.00,,,0.04,WUHU21623XXSP,2013-01-12 18:25:00,
2013-01-12 13:30:00,69.6,64.5,30.10,NE,45,0.0,0.0,84,0.00,,,0.04,WUHU21623XXSP,2013-01-12 18:30:00,
2013-01-12 13:35:00,69.6,64.2,30.10,NE,45,0.0,0.0,83,0.00,,,0.04,WUHU21623XXSP,2013-01-12 18:35:00,
2013-01-12 13:40:00,69.8,64.0,30.11,NE,45,0.0,0.0,82,0.00,,,0.04,WUHU21623XXSP,2013-01-12 18:40:00,
2013-01-12 13:45:00,70.3,64.5,30.10,ENE,67,0.0,0.0,82,0.00,,,0.04,WUHU21623XXSP,2013-01-12 18:45:00,
2013-01-12 13:51:00,70.5,64.4,30.10,NE,45,0.0,0.0,81,0.00,,,0.04,WUHU21623XXSP,2013-01-12 18:51:00,
2013-01-12 13:56:00,70.7,64.2,30.10,ENE,67,0.0,0.0,80,0.00,,,0.04,WUHU21623XXSP,2013-01-12 18:56:00,
2013-01-12 14:01:00,70.9,64.4,30.10,ENE,67,0.0,0.0,80,0.00,,,0.04,WUHU21623XXSP,2013-01-12 19:01:00,
2013-01-12 14:06:00,71.1,64.2,30.09,ENE,67,0.0,0.0,80,0.00,,,0.04,WUHU21623XXSP,2013-01-12 19:06:00,
2013-01-12 14:11:00,71.2,64.4,30.09,ENE,67,0.0,0.0,79,0.00,,,0.04,WUHU21623XXSP,2013-01-12 19:11:00,
2013-01-12 14:16:00,71.4,64.6,30.09,ENE,67,0.0,0.0,79,0.00,,,0.04,WUHU21623XXSP,2013-01-12 19:16:00,
2013-01-12 14:21:00,71.6,64.7,30.09,ENE,67,0.0,0.0,79,0.00,,,0.04,WUHU21623XXSP,2013-01-12 19:21:00,
2013-01-12 14:26:00,71.8,64.5,30.09,ENE,67,0.0,0.0,78,0.00,,,0.04,WUHU21623XXSP,2013-01-12 19:26:00,
2013-01-12 14:31:00,72.0,64.0,30.09,ENE,67,0.0,0.0,76,0.00,,,0.04,WUHU21623XXSP,2013-01-12 19:31:00,
2013-01-12 14:36:00,72.0,64.0,30.09,ENE,67,0.0,0.0,76,0.00,,,0.04,WUHU21623XXSP,2013-01-12 19:36:00,
2013-01-12 14:41:00,72.1,64.1,30.09,ENE,67,0.0,0.0,76,0.00,,,0.04,WUHU21623XXSP,2013-01-12 19:41:00,
2013-01-12 14:46:00,72.3,64.3,30.09,ENE,67,0.0,0.0,76,0.00,,,0.04,WUHU21623XXSP,2013-01-12 19:46:00,
2013-01-12 14:51:00,72.3,64.3,30.09,ENE,67,0.0,0.0,76,0.00,,,0.04,WUHU21623XXSP,2013-01-12 19:51:00,
2013-01-12 14:56:00,72.3,64.5,30.09,ENE,67,0.0,0.0,76,0.00,,,0.04,WUHU21623XXSP,2013-01-12 19:56:00,
2013-01-12 15:01:00,72.3,64.0,30.09,NE,45,0.0,0.0,75,0.00,,,0.04,WUHU21623XXSP,2013-01-12 20:01:00,
2013-01-12 15:06:00,72.3,64.0,30.09,NE,45,0.0,0.0,75,0.00,,,0.04,WUHU21623XXSP,2013-01-12 20:06:00,
2013-01-12 15:11:00,72.9,63.7,30.09,NE,45,0.0,0.0,73,0.00,,,0.04,WUHU21623XXSP,2013-01-12 20:11:00,
2013-01-12 15:16:00,72.9,64.1,30.09,NE,45,0.0,0.0,74,0.00,,,0.04,WUHU21623XXSP,2013-01-12 20:16:00,
2013-01-12 15:21:00,72.9,64.1,30.09,NE,45,0.0,0.0,74,0.00,,,0.04,WUHU21623XXSP,2013-01-12 20:21:00,
2013-01-12 15:26:00,73.0,64.3,30.09,NE,45,0.0,0.0,74,0.00,,,0.04,WUHU21623XXSP,2013-01-12 20:26:00,
2013-01-12 15:31:00,73.2,64.3,30.09,NE,45,0.0,0.0,73,0.00,,,0.04,WUHU21623XXSP,2013-01-12 20:31:00,
2013-01-12 15:37:00,73.8,64.2,30.09,NE,45,0.0,0.0,72,0.00,,,0.04,WUHU21623XXSP,2013-01-12 20:37:00,
2013-01-12 15:42:00,74.1,64.2,30.09,NE,45,0.0,0.0,71,0.00,,,0.04,WUHU21623XXSP,2013-01-12 20:42:00,
2013-01-12 15:47:00,74.1,63.8,30.09,SSE,157,0.0,0.0,70,0.00,,,0.04,WUHU21623XXSP,2013-01-12 20:47:00,
2013-01-12 15:52:00,73.6,62.4,30.09,South,180,0.0,0.0,68,0.00,,,0.04,WUHU21623XXSP,2013-01-12 20:52:00,
2013-01-12 15:57:00,73.2,62.1,30.09,SSE,157,0.0,0.0,68,0.00,,,0.04,WUHU21623XXSP,2013-01-12 20:57:00,
2013-01-12 16:02:00,73.0,61.4,30.09,SSE,157,0.0,0.0,67,0.00,,,0.04,WUHU21623XXSP,2013-01-12 21:02:00,
2013-01-12 16:07:00,72.7,61.1,30.09,SSE,157,0.0,0.0,67,0.00,,,0.04,WUHU21623XXSP,2013-01-12 21:07:00,
2013-01-12 16:12:00,72.7,61.1,30.09,SSE,157,0.0,0.0,67,0.00,,,0.04,WUHU21623XXSP,2013-01-12 21:12:00,
2013-01-12 16:17:00,72.3,60.7,30.09,South,180,0.0,0.0,67,0.00,,,0.04,WUHU21623XXSP,2013-01-12 21:17:00,
2013-01-12 16:22:00,72.1,60.1,30.09,SSE,157,0.0,0.0,66,0.00,,,0.04,WUHU21623XXSP,2013-01-12 21:22:00,
2013-01-12 16:27:00,71.6,60.0,30.08,SSE,157,0.0,0.0,67,0.00,,,0.04,WUHU21623XXSP,2013-01-12 21:27:00,
2013-01-12 16:32:00,71.2,59.7,30.08,ESE,112,0.0,0.0,67,0.00,,,0.04,WUHU21623XXSP,2013-01-12 21:32:00,
2013-01-12 16:37:00,70.5,59.0,30.08,SSE,157,0.0,0.0,67,0.00,,,0.04,WUHU21623XXSP,2013-01-12 21:37:00,
2013-01-12 16:42:00,70.0,58.5,30.08,SSE,157,0.0,0.0,67,0.00,,,0.04,WUHU21623XXSP,2013-01-12 21:42:00,
2013-01-12 16:47:00,69.6,58.1,30.08,SE,135,0.0,0.0,67,0.00,,,0.04,WUHU21623XXSP,2013-01-12 21:47:00,
2013-01-12 16:52:00,69.1,58.0,30.08,SE,135,0.0,0.0,68,0.00,,,0.04,WUHU21623XXSP,2013-01-12 21:52:00,
2013-01-12 16:57:00,68.7,57.7,30.08,SE,135,0.0,0.0,68,0.00,,,0.04,WUHU21623XXSP,2013-01-12 21:57:00,
2013-01-12 17:02:00,68.5,58.0,30.09,SSE,157,0.0,0.0,69,0.00,,,0.04,WUHU21623XXSP,2013-01-12 22:02:00,
2013-01-12 17:07:00,68.4,57.8,30.09,SE,135,0.0,0.0,69,0.00,,,0.04,WUHU21623XXSP,2013-01-12 22:07:00,
2013-01-12 17:12:00,68.2,57.7,30.09,SE,135,0.0,0.0,69,0.00,,,0.04,WUHU21623XXSP,2013-01-12 22:12:00,
2013-01-12 17:17:00,67.6,57.6,30.09,SE,135,0.0,0.0,70,0.00,,,0.04,WUHU21623XXSP,2013-01-12 22:17:00,
2013-01-12 17:22:00,67.3,57.2,30.10,SE,135,0.0,0.0,70,0.00,,,0.04,WUHU21623XXSP,2013-01-12 22:22:00,
2013-01-12 17:27:00,66.9,57.2,30.09,SE,135,0.0,0.0,71,0.00,,,0.04,WUHU21623XXSP,2013-01-12 22:27:00,
2013-01-12 17:32:00,66.4,56.7,30.09,SSE,157,0.0,0.0,71,0.00,,,0.04,WUHU21623XXSP,2013-01-12 22:32:00,
2013-01-12 17:37:00,66.0,56.3,30.08,SSE,157,0.0,0.0,71,0.00,,,0.04,WUHU21623XXSP,2013-01-12 22:37:00,
2013-01-12 17:43:00,65.5,56.2,30.09,SSE,157,0.0,0.0,72,0.00,,,0.04,WUHU21623XXSP,2013-01-12 22:43:00,
2013-01-12 17:48:00,65.1,56.0,30.09,SSE,157,0.0,0.0,73,0.00,,,0.04,WUHU21623XXSP,2013-01-12 22:48:00,
2013-01-12 17:53:00,64.8,55.9,30.09,SSE,157,0.0,0.0,73,0.00,,,0.04,WUHU21623XXSP,2013-01-12 22:53:00,
2013-01-12 17:58:00,64.2,55.4,30.09,SSE,157,0.0,0.0,73,0.00,,,0.04,WUHU21623XXSP,2013-01-12 22:58:00,
2013-01-12 18:03:00,64.0,55.6,30.09,SE,135,0.0,0.0,74,0.00,,,0.04,WUHU21623XXSP,2013-01-12 23:03:00,
2013-01-12 18:08:00,63.9,55.4,30.09,SSE,157,0.0,0.0,74,0.00,,,0.04,WUHU21623XXSP,2013-01-12 23:08:00,
2013-01-12 18:13:00,63.5,55.4,30.09,SSE,157,0.0,0.0,75,0.00,,,0.04,WUHU21623XXSP,2013-01-12 23:13:00,
2013-01-12 18:18:00,63.3,55.2,30.09,SSE,157,0.0,0.0,75,0.00,,,0.04,WUHU21623XXSP,2013-01-12 23:18:00,
2013-01-12 18:23:00,63.1,55.0,30.10,SSE,157,0.0,0.0,75,0.00,,,0.04,WUHU21623XXSP,2013-01-12 23:23:00,
2013-01-12 18:28:00,63.0,54.9,30.10,SSE,157,0.0,0.0,75,0.00,,,0.04,WUHU21623XXSP,2013-01-12 23:28:00,
2013-01-12 18:33:00,62.8,55.0,30.10,SSE,157,0.0,0.0,76,0.00,,,0.04,WUHU21623XXSP,2013-01-12 23:33:00,
2013-01-12 18:38:00,62.4,54.7,30.10,SSE,157,0.0,0.0,76,0.00,,,0.04,WUHU21623XXSP,2013-01-12 23:38:00,
2013-01-12 18:44:00,62.4,55.1,30.10,SSE,157,0.0,0.0,77,0.00,,,0.04,WUHU21623XXSP,2013-01-12 23:44:00,
2013-01-12 18:49:00,62.4,55.1,30.10,SSE,157,0.0,0.0,77,0.00,,,0.04,WUHU21623XXSP,2013-01-12 23:49:00,
2013-01-12 18:54:00,62.1,55.1,30.09,SSE,157,0.0,0.0,78,0.00,,,0.04,WUHU21623XXSP,2013-01-12 23:54:00,
2013-01-12 18:59:00,61.9,54.9,30.10,SSE,157,0.0,0.0,78,0.00,,,0.04,WUHU21623XXSP,2013-01-12 23:59:00,
2013-01-12 19:04:00,61.7,54.8,30.10,SSE,157,0.0,0.0,78,0.00,,,0.04,WUHU21623XXSP,2013-01-13 00:04:00,
2013-01-12 19:09:00,61.3,55.0,30.10,SSE,157,0.0,0.0,79,0.00,,,0.04,WUHU21623XXSP,2013-01-13 00:09:00,
2013-01-12 19:14:00,61.2,54.6,30.10,SSE,157,0.0,0.0,79,0.00,,,0.04,WUHU21623XXSP,2013-01-13 00:14:00,
2013-01-12 19:19:00,61.0,54.8,30.10,SSE,157,0.0,0.0,80,0.00,,,0.04,WUHU21623XXSP,2013-01-13 00:19:00,
2013-01-12 19:24:00,61.0,55.2,30.10,SE,135,0.0,0.0,81,0.00,,,0.04,WUHU21623XXSP,2013-01-13 00:24:00,
2013-01-12 19:29:00,61.0,55.2,30.10,SE,135,0.0,0.0,81,0.00,,,0.04,WUHU21623XXSP,2013-01-13 00:29:00,
2013-01-12 19:34:00,61.0,55.2,30.10,SE,135,0.0,0.0,81,0.00,,,0.04,WUHU21623XXSP,2013-01-13 00:34:00,
2013-01-12 19:39:00,60.6,54.8,30.09,SE,135,0.0,0.0,81,0.00,,,0.04,WUHU21623XXSP,2013-01-13 00:39:00,
2013-01-12 19:44:00,60.6,55.1,30.09,SE,135,0.0,0.0,82,0.00,,,0.04,WUHU21623XXSP,2013-01-13 00:44:00,
2013-01-12 19:49:00,60.4,55.0,30.10,SE,135,0.0,0.0,82,0.00,,,0.04,WUHU21623XXSP,2013-01-13 00:49:00,
2013-01-12 19:54:00,60.4,55.0,30.09,SE,135,0.0,0.0,82,0.00,,,0.04,WUHU21623XXSP,2013-01-13 00:54:00,
2013-01-12 19:59:00,60.4,55.0,30.09,SE,135,0.0,0.0,82,0.00,,,0.04,WUHU21623XXSP,2013-01-13 00:59:00,
2013-01-12 20:04:00,60.4,55.0,30.09,SE,135,0.0,0.0,82,0.00,,,0.04,WUHU21623XXSP,2013-01-13 01:04:00,
2013-01-12 20:09:00,60.3,54.8,30.09,East,90,0.0,0.0,82,0.00,,,0.04,WUHU21623XXSP,2013-01-13 01:09:00,
2013-01-12 20:14:00,60.1,54.6,30.09,East,90,0.0,0.0,82,0.00,,,0.04,WUHU21623XXSP,2013-01-13 01:14:00,
2013-01-12 20:19:00,59.7,54.6,30.08,East,90,0.0,0.0,83,0.00,,,0.04,WUHU21623XXSP,2013-01-13 01:19:00,
2013-01-12 20:24:00,59.7,54.6,30.09,East,90,0.0,0.0,84,0.00,,,0.04,WUHU21623XXSP,2013-01-13 01:24:00,
2013-01-12 20:30:00,59.7,54.9,30.09,East,90,0.0,0.0,84,0.00,,,0.04,WUHU21623XXSP,2013-01-13 01:30:00,
2013-01-12 20:35:00,59.7,54.9,30.09,East,90,0.0,0.0,84,0.00,,,0.04,WUHU21623XXSP,2013-01-13 01:35:00,
2013-01-12 20:40:00,59.9,55.1,30.09,East,90,0.0,0.0,84,0.00,,,0.04,WUHU21623XXSP,2013-01-13 01:40:00,
2013-01-12 20:45:00,59.9,55.1,30.09,East,90,0.0,0.0,84,0.00,,,0.04,WUHU21623XXSP,2013-01-13 01:45:00,
2013-01-12 20:50:00,59.9,55.1,30.09,East,90,0.0,0.0,84,0.00,,,0.04,WUHU21623XXSP,2013-01-13 01:50:00,
2013-01-12 20:55:00,59.9,55.1,30.09,East,90,0.0,0.0,84,0.00,,,0.04,WUHU21623XXSP,2013-01-13 01:55:00,
2013-01-12 21:00:00,59.7,54.9,30.09,East,90,0.0,0.0,84,0.00,,,0.04,WUHU21623XXSP,2013-01-13 02:00:00,
2013-01-12 21:05:00,59.7,54.9,30.09,ENE,67,0.0,0.0,84,0.00,,,0.04,WUHU21623XXSP,2013-01-13 02:05:00,
2013-01-12 21:10:00,59.7,54.7,30.09,ENE,67,0.0,0.0,84,0.00,,,0.04,WUHU21623XXSP,2013-01-13 02:10:00,
2013-01-12 21:15:00,59.5,54.7,30.09,ENE,67,0.0,0.0,84,0.00,,,0.04,WUHU21623XXSP,2013-01-13 02:15:00,
2013-01-12 21:20:00,59.7,54.9,30.09,ENE,67,0.0,0.0,84,0.00,,,0.04,WUHU21623XXSP,2013-01-13 02:20:00,
2013-01-12 21:25:00,59.7,54.9,30.08,ENE,67,0.0,0.0,84,0.00,,,0.04,WUHU21623XXSP,2013-01-13 02:25:00,
2013-01-12 21:30:00,59.7,54.9,30.09,ENE,67,0.0,0.0,84,0.00,,,0.04,WUHU21623XXSP,2013-01-13 02:30:00,
2013-01-12 21:35:00,59.9,55.1,30.09,ENE,67,0.0,0.0,84,0.00,,,0.04,WUHU21623XXSP,2013-01-13 02:35:00,
2013-01-12 21:40:00,59.9,55.1,30.08,ENE,67,0.0,0.0,84,0.00,,,0.04,WUHU21623XXSP,2013-01-13 02:40:00,
2013-01-12 21:45:00,60.1,55.3,30.09,ENE,67,0.0,0.0,84,0.00,,,0.04,WUHU21623XXSP,2013-01-13 02:45:00,
2013-01-12 21:50:00,59.9,55.1,30.08,ENE,67,0.0,0.0,84,0.00,,,0.04,WUHU21623XXSP,2013-01-13 02:50:00,
2013-01-12 21:55:00,59.7,54.9,30.08,ENE,67,0.0,0.0,84,0.00,,,0.04,WUHU21623XXSP,2013-01-13 02:55:00,
2013-01-12 22:00:00,59.5,54.7,30.08,ENE,67,0.0,0.0,84,0.00,,,0.04,WUHU21623XXSP,2013-01-13 03:00:00,
2013-01-12 22:05:00,59.4,54.5,30.07,ENE,67,0.0,0.0,84,0.00,,,0.04,WUHU21623XXSP,2013-01-13 03:05:00,
2013-01-12 22:10:00,59.2,54.4,30.07,ENE,67,0.0,0.0,84,0.00,,,0.04,WUHU21623XXSP,2013-01-13 03:10:00,
2013-01-12 22:15:00,58.8,54.0,30.08,ENE,67,0.0,0.0,84,0.00,,,0.04,WUHU21623XXSP,2013-01-13 03:15:00,
2013-01-12 22:20:00,58.8,54.0,30.07,ENE,67,0.0,0.0,84,0.00,,,0.04,WUHU21623XXSP,2013-01-13 03:20:00,
2013-01-12 22:25:00,58.8,54.0,30.08,ENE,67,0.0,0.0,84,0.00,,,0.04,WUHU21623XXSP,2013-01-13 03:25:00,
2013-01-12 22:30:00,58.8,54.0,30.08,ENE,67,0.0,0.0,84,0.00,,,0.04,WUHU21623XXSP,2013-01-13 03:30:00,
2013-01-12 22:35:00,58.5,54.0,30.08,ENE,67,0.0,0.0,85,0.00,,,0.04,WUHU21623XXSP,2013-01-13 03:35:00,
2013-01-12 22:40:00,58.3,53.8,30.08,ENE,67,0.0,0.0,85,0.00,,,0.04,WUHU21623XXSP,2013-01-13 03:40:00,
2013-01-12 22:45:00,58.3,53.8,30.08,ENE,67,0.0,0.0,85,0.00,,,0.04,WUHU21623XXSP,2013-01-13 03:45:00,
2013-01-12 22:50:00,58.3,54.1,30.08,ENE,67,0.0,0.0,86,0.00,,,0.04,WUHU21623XXSP,2013-01-13 03:50:00,
2013-01-12 22:55:00,58.3,54.1,30.08,ENE,67,0.0,0.0,86,0.00,,,0.04,WUHU21623XXSP,2013-01-13 03:55:00,
2013-01-12 23:00:00,58.1,53.9,30.08,ENE,67,0.0,0.0,86,0.00,,,0.04,WUHU21623XXSP,2013-01-13 04:00:00,
2013-01-12 23:05:00,57.9,53.7,30.08,ENE,67,0.0,0.0,86,0.00,,,0.04,WUHU21623XXSP,2013-01-13 04:05:00,
2013-01-12 23:10:00,57.9,53.7,30.08,ENE,67,0.0,0.0,86,0.00,,,0.04,WUHU21623XXSP,2013-01-13 04:10:00,
2013-01-12 23:15:00,58.1,53.7,30.08,ENE,67,0.0,0.0,86,0.00,,,0.04,WUHU21623XXSP,2013-01-13 04:15:00,
2013-01-12 23:20:00,58.3,53.9,30.08,ENE,67,0.0,0.0,86,0.00,,,0.04,WUHU21623XXSP,2013-01-13 04:20:00,
2013-01-12 23:25:00,58.3,54.1,30.08,ENE,67,0.0,0.0,86,0.00,,,0.04,WUHU21623XXSP,2013-01-13 04:25:00,
2013-01-12 23:30:00,58.3,54.1,30.08,ENE,67,0.0,0.0,86,0.00,,,0.04,WUHU21623XXSP,2013-01-13 04:30:00,
2013-01-12 23:35:00,58.3,54.3,30.08,ENE,67,0.0,0.0,86,0.00,,,0.04,WUHU21623XXSP,2013-01-13 04:35:00,
2013-01-12 23:40:00,58.5,54.3,30.08,ENE,67,0.0,0.0,86,0.00,,,0.04,WUHU21623XXSP,2013-01-13 04:40:00,
2013-01-12 23:45:00,58.6,54.3,30.08,ENE,67,0.0,0.0,86,0.00,,,0.04,WUHU21623XXSP,2013-01-13 04:45:00,
2013-01-12 23:50:00,58.6,54.5,30.08,ENE,67,0.0,0.0,86,0.00,,,0.04,WUHU21623XXSP,2013-01-13 04:50:00,
2013-01-12 23:55:00,58.6,54.5,30.08,ENE,67,0.0,0.0,86,0.00,,,0.04,WUHU21623XXSP,2013-01-13 04:55:00,